sensor_id;sensor_type;location;lat;lon;timestamp;P1;durP1;ratioP1;P2;durP2;ratioP2
21354;SDS011;10835;50.148;19.760;2023-05-09T00:01:04;4.80;;;3.70;;
21354;SDS011;10835;50.148;19.760;2023-05-09T00:03:33;7.57;;;4.20;;
21354;SDS011;10835;50.148;19.760;2023-05-09T00:06:01;6.43;;;3.75;;
21354;SDS011;10835;50.148;19.760;2023-05-09T00:08:29;8.05;;;4.30;;
21354;SDS011;10835;50.148;19.760;2023-05-09T00:11:00;5.18;;;3.58;;
21354;SDS011;10835;50.148;19.760;2023-05-09T00:13:28;9.48;;;4.88;;
21354;SDS011;10835;50.148;19.760;2023-05-09T00:15:57;6.65;;;4.25;;
21354;SDS011;10835;50.148;19.760;2023-05-09T00:18:26;5.18;;;3.08;;
21354;SDS011;10835;50.148;19.760;2023-05-09T00:20:56;7.20;;;4.80;;
21354;SDS011;10835;50.148;19.760;2023-05-09T00:23:24;7.50;;;4.22;;
21354;SDS011;10835;50.148;19.760;2023-05-09T00:25:52;6.65;;;3.83;;
21354;SDS011;10835;50.148;19.760;2023-05-09T00:28:22;7.05;;;3.78;;
21354;SDS011;10835;50.148;19.760;2023-05-09T00:30:50;6.90;;;3.53;;
21354;SDS011;10835;50.148;19.760;2023-05-09T00:33:18;6.18;;;3.80;;
21354;SDS011;10835;50.148;19.760;2023-05-09T00:35:47;11.20;;;4.10;;
21354;SDS011;10835;50.148;19.760;2023-05-09T00:38:15;7.53;;;3.92;;
21354;SDS011;10835;50.148;19.760;2023-05-09T00:40:43;8.43;;;3.60;;
21354;SDS011;10835;50.148;19.760;2023-05-09T00:43:12;6.30;;;3.58;;
21354;SDS011;10835;50.148;19.760;2023-05-09T00:45:41;6.90;;;3.97;;
21354;SDS011;10835;50.148;19.760;2023-05-09T00:48:10;5.50;;;3.75;;
21354;SDS011;10835;50.148;19.760;2023-05-09T00:50:38;8.50;;;4.68;;
21354;SDS011;10835;50.148;19.760;2023-05-09T00:53:09;6.10;;;3.58;;
21354;SDS011;10835;50.148;19.760;2023-05-09T00:55:38;5.80;;;3.63;;
21354;SDS011;10835;50.148;19.760;2023-05-09T00:58:09;6.28;;;4.05;;
21354;SDS011;10835;50.148;19.760;2023-05-09T01:00:38;6.03;;;3.92;;
21354;SDS011;10835;50.148;19.760;2023-05-09T01:03:08;6.70;;;4.25;;
21354;SDS011;10835;50.148;19.760;2023-05-09T01:05:39;6.55;;;4.07;;
21354;SDS011;10835;50.148;19.760;2023-05-09T01:08:17;5.53;;;3.92;;
21354;SDS011;10835;50.148;19.760;2023-05-09T01:10:52;6.88;;;4.10;;
21354;SDS011;10835;50.148;19.760;2023-05-09T01:13:30;7.90;;;4.45;;
21354;SDS011;10835;50.148;19.760;2023-05-09T01:16:04;8.85;;;4.70;;
21354;SDS011;10835;50.148;19.760;2023-05-09T01:18:39;6.18;;;4.53;;
21354;SDS011;10835;50.148;19.760;2023-05-09T01:21:12;5.03;;;3.85;;
21354;SDS011;10835;50.148;19.760;2023-05-09T01:24:08;6.82;;;4.43;;
21354;SDS011;10835;50.148;19.760;2023-05-09T01:27:01;6.65;;;4.32;;
21354;SDS011;10835;50.148;19.760;2023-05-09T01:29:43;7.57;;;4.30;;
21354;SDS011;10835;50.148;19.760;2023-05-09T01:32:15;13.57;;;4.70;;
21354;SDS011;10835;50.148;19.760;2023-05-09T01:34:46;8.82;;;5.03;;
21354;SDS011;10835;50.148;19.760;2023-05-09T01:37:18;8.55;;;4.47;;
21354;SDS011;10835;50.148;19.760;2023-05-09T01:39:51;11.27;;;4.45;;
21354;SDS011;10835;50.148;19.760;2023-05-09T01:42:22;7.95;;;4.88;;
21354;SDS011;10835;50.148;19.760;2023-05-09T01:44:55;6.88;;;4.95;;
21354;SDS011;10835;50.148;19.760;2023-05-09T01:47:25;8.65;;;4.43;;
21354;SDS011;10835;50.148;19.760;2023-05-09T01:49:55;10.15;;;4.75;;
21354;SDS011;10835;50.148;19.760;2023-05-09T01:52:23;8.13;;;4.18;;
21354;SDS011;10835;50.148;19.760;2023-05-09T01:54:53;7.63;;;4.53;;
21354;SDS011;10835;50.148;19.760;2023-05-09T01:57:22;7.82;;;4.50;;
21354;SDS011;10835;50.148;19.760;2023-05-09T01:59:51;13.38;;;5.43;;
21354;SDS011;10835;50.148;19.760;2023-05-09T02:02:22;9.40;;;5.20;;
21354;SDS011;10835;50.148;19.760;2023-05-09T02:04:51;7.65;;;4.60;;
21354;SDS011;10835;50.148;19.760;2023-05-09T02:07:22;7.35;;;4.88;;
21354;SDS011;10835;50.148;19.760;2023-05-09T02:09:54;7.30;;;4.68;;
21354;SDS011;10835;50.148;19.760;2023-05-09T02:12:25;7.88;;;4.63;;
21354;SDS011;10835;50.148;19.760;2023-05-09T02:14:53;9.30;;;5.05;;
21354;SDS011;10835;50.148;19.760;2023-05-09T02:17:23;7.10;;;4.22;;
21354;SDS011;10835;50.148;19.760;2023-05-09T02:19:51;8.70;;;4.75;;
21354;SDS011;10835;50.148;19.760;2023-05-09T02:22:19;7.53;;;4.70;;
21354;SDS011;10835;50.148;19.760;2023-05-09T02:24:47;10.05;;;5.47;;
21354;SDS011;10835;50.148;19.760;2023-05-09T02:27:16;10.43;;;4.72;;
21354;SDS011;10835;50.148;19.760;2023-05-09T02:29:47;8.45;;;4.55;;
21354;SDS011;10835;50.148;19.760;2023-05-09T02:32:18;10.60;;;4.03;;
21354;SDS011;10835;50.148;19.760;2023-05-09T02:34:52;7.30;;;4.57;;
21354;SDS011;10835;50.148;19.760;2023-05-09T02:37:22;7.63;;;4.70;;
21354;SDS011;10835;50.148;19.760;2023-05-09T02:39:51;6.45;;;4.43;;
21354;SDS011;10835;50.148;19.760;2023-05-09T02:42:20;10.10;;;4.47;;
21354;SDS011;10835;50.148;19.760;2023-05-09T02:44:50;8.15;;;4.53;;
21354;SDS011;10835;50.148;19.760;2023-05-09T02:47:20;6.32;;;4.43;;
21354;SDS011;10835;50.148;19.760;2023-05-09T02:49:48;8.65;;;4.50;;
21354;SDS011;10835;50.148;19.760;2023-05-09T02:52:21;8.15;;;4.43;;
21354;SDS011;10835;50.148;19.760;2023-05-09T02:54:49;7.13;;;4.70;;
21354;SDS011;10835;50.148;19.760;2023-05-09T02:57:17;6.63;;;4.43;;
21354;SDS011;10835;50.148;19.760;2023-05-09T02:59:46;8.35;;;4.50;;
21354;SDS011;10835;50.148;19.760;2023-05-09T03:02:14;10.52;;;5.38;;
21354;SDS011;10835;50.148;19.760;2023-05-09T03:04:44;6.65;;;4.05;;
21354;SDS011;10835;50.148;19.760;2023-05-09T03:07:12;9.23;;;4.35;;
21354;SDS011;10835;50.148;19.760;2023-05-09T03:09:42;9.05;;;4.57;;
21354;SDS011;10835;50.148;19.760;2023-05-09T03:12:10;10.68;;;4.32;;
21354;SDS011;10835;50.148;19.760;2023-05-09T03:14:38;5.68;;;4.38;;
21354;SDS011;10835;50.148;19.760;2023-05-09T03:17:06;8.43;;;4.70;;
21354;SDS011;10835;50.148;19.760;2023-05-09T03:19:35;7.07;;;4.95;;
21354;SDS011;10835;50.148;19.760;2023-05-09T03:22:04;11.70;;;5.15;;
21354;SDS011;10835;50.148;19.760;2023-05-09T03:24:36;6.82;;;4.47;;
21354;SDS011;10835;50.148;19.760;2023-05-09T03:27:06;8.32;;;4.95;;
21354;SDS011;10835;50.148;19.760;2023-05-09T03:29:34;7.85;;;5.10;;
21354;SDS011;10835;50.148;19.760;2023-05-09T03:32:03;11.55;;;4.55;;
21354;SDS011;10835;50.148;19.760;2023-05-09T03:34:32;10.90;;;4.93;;
21354;SDS011;10835;50.148;19.760;2023-05-09T03:37:01;8.88;;;4.88;;
21354;SDS011;10835;50.148;19.760;2023-05-09T03:39:31;9.15;;;5.10;;
21354;SDS011;10835;50.148;19.760;2023-05-09T03:42:01;16.20;;;5.05;;
21354;SDS011;10835;50.148;19.760;2023-05-09T03:44:31;9.85;;;4.60;;
21354;SDS011;10835;50.148;19.760;2023-05-09T03:46:59;10.65;;;5.38;;
21354;SDS011;10835;50.148;19.760;2023-05-09T03:49:33;8.20;;;5.13;;
21354;SDS011;10835;50.148;19.760;2023-05-09T03:52:02;8.48;;;4.88;;
21354;SDS011;10835;50.148;19.760;2023-05-09T03:54:31;9.95;;;5.05;;
21354;SDS011;10835;50.148;19.760;2023-05-09T03:57:00;8.77;;;4.90;;
21354;SDS011;10835;50.148;19.760;2023-05-09T03:59:29;13.98;;;5.50;;
21354;SDS011;10835;50.148;19.760;2023-05-09T04:01:59;9.65;;;4.82;;
21354;SDS011;10835;50.148;19.760;2023-05-09T04:04:28;7.03;;;4.57;;
21354;SDS011;10835;50.148;19.760;2023-05-09T04:06:57;7.28;;;4.90;;
21354;SDS011;10835;50.148;19.760;2023-05-09T04:09:26;7.50;;;4.55;;
21354;SDS011;10835;50.148;19.760;2023-05-09T04:11:54;6.53;;;4.47;;
21354;SDS011;10835;50.148;19.760;2023-05-09T04:14:23;8.73;;;4.47;;
21354;SDS011;10835;50.148;19.760;2023-05-09T04:16:53;7.88;;;4.47;;
21354;SDS011;10835;50.148;19.760;2023-05-09T04:19:23;7.65;;;4.35;;
21354;SDS011;10835;50.148;19.760;2023-05-09T04:21:52;8.23;;;4.07;;
21354;SDS011;10835;50.148;19.760;2023-05-09T04:24:20;11.43;;;4.90;;
21354;SDS011;10835;50.148;19.760;2023-05-09T04:26:48;5.03;;;3.67;;
21354;SDS011;10835;50.148;19.760;2023-05-09T04:29:20;9.35;;;4.65;;
21354;SDS011;10835;50.148;19.760;2023-05-09T04:31:53;6.47;;;4.05;;
21354;SDS011;10835;50.148;19.760;2023-05-09T04:34:24;6.22;;;3.78;;
21354;SDS011;10835;50.148;19.760;2023-05-09T04:36:55;7.30;;;4.53;;
21354;SDS011;10835;50.148;19.760;2023-05-09T04:39:23;5.55;;;3.70;;
21354;SDS011;10835;50.148;19.760;2023-05-09T04:42:00;8.07;;;4.30;;
21354;SDS011;10835;50.148;19.760;2023-05-09T04:44:29;7.18;;;4.40;;
21354;SDS011;10835;50.148;19.760;2023-05-09T04:47:00;6.60;;;4.00;;
21354;SDS011;10835;50.148;19.760;2023-05-09T04:49:29;9.02;;;4.97;;
21354;SDS011;10835;50.148;19.760;2023-05-09T04:51:57;8.75;;;3.97;;
21354;SDS011;10835;50.148;19.760;2023-05-09T04:54:25;6.10;;;3.88;;
21354;SDS011;10835;50.148;19.760;2023-05-09T04:56:53;6.65;;;4.63;;
21354;SDS011;10835;50.148;19.760;2023-05-09T04:59:40;6.60;;;4.13;;
21354;SDS011;10835;50.148;19.760;2023-05-09T05:02:12;6.72;;;3.65;;
21354;SDS011;10835;50.148;19.760;2023-05-09T05:04:44;6.28;;;3.85;;
21354;SDS011;10835;50.148;19.760;2023-05-09T05:07:13;11.80;;;4.28;;
21354;SDS011;10835;50.148;19.760;2023-05-09T05:09:42;5.50;;;3.75;;
21354;SDS011;10835;50.148;19.760;2023-05-09T05:12:10;4.60;;;3.13;;
21354;SDS011;10835;50.148;19.760;2023-05-09T05:14:40;4.05;;;2.95;;
21354;SDS011;10835;50.148;19.760;2023-05-09T05:17:13;6.10;;;3.63;;
21354;SDS011;10835;50.148;19.760;2023-05-09T05:19:44;4.72;;;2.95;;
21354;SDS011;10835;50.148;19.760;2023-05-09T05:22:13;6.35;;;3.40;;
21354;SDS011;10835;50.148;19.760;2023-05-09T05:24:44;5.07;;;3.03;;
21354;SDS011;10835;50.148;19.760;2023-05-09T05:27:14;6.00;;;3.30;;
21354;SDS011;10835;50.148;19.760;2023-05-09T05:29:42;4.68;;;2.70;;
21354;SDS011;10835;50.148;19.760;2023-05-09T05:32:10;6.60;;;3.50;;
21354;SDS011;10835;50.148;19.760;2023-05-09T05:34:40;4.72;;;3.15;;
21354;SDS011;10835;50.148;19.760;2023-05-09T05:37:09;4.63;;;3.60;;
21354;SDS011;10835;50.148;19.760;2023-05-09T05:39:37;7.03;;;4.15;;
21354;SDS011;10835;50.148;19.760;2023-05-09T05:42:05;7.47;;;3.58;;
21354;SDS011;10835;50.148;19.760;2023-05-09T05:44:34;6.78;;;3.50;;
21354;SDS011;10835;50.148;19.760;2023-05-09T05:47:02;7.50;;;3.67;;
21354;SDS011;10835;50.148;19.760;2023-05-09T05:49:32;4.65;;;3.15;;
21354;SDS011;10835;50.148;19.760;2023-05-09T05:52:00;5.80;;;2.90;;
21354;SDS011;10835;50.148;19.760;2023-05-09T05:54:29;5.70;;;3.30;;
21354;SDS011;10835;50.148;19.760;2023-05-09T05:56:57;4.90;;;3.03;;
21354;SDS011;10835;50.148;19.760;2023-05-09T05:59:25;6.00;;;3.50;;
21354;SDS011;10835;50.148;19.760;2023-05-09T06:01:53;7.10;;;3.42;;
21354;SDS011;10835;50.148;19.760;2023-05-09T06:04:22;6.03;;;3.38;;
21354;SDS011;10835;50.148;19.760;2023-05-09T06:06:51;5.22;;;3.05;;
21354;SDS011;10835;50.148;19.760;2023-05-09T06:09:20;7.82;;;3.20;;
21354;SDS011;10835;50.148;19.760;2023-05-09T06:11:48;6.20;;;3.20;;
21354;SDS011;10835;50.148;19.760;2023-05-09T06:14:17;6.65;;;3.70;;
21354;SDS011;10835;50.148;19.760;2023-05-09T06:16:46;5.30;;;2.95;;
21354;SDS011;10835;50.148;19.760;2023-05-09T06:19:14;6.38;;;4.05;;
21354;SDS011;10835;50.148;19.760;2023-05-09T06:21:42;4.57;;;3.08;;
21354;SDS011;10835;50.148;19.760;2023-05-09T06:24:12;5.10;;;3.60;;
21354;SDS011;10835;50.148;19.760;2023-05-09T06:26:57;6.57;;;3.35;;
21354;SDS011;10835;50.148;19.760;2023-05-09T06:29:25;5.30;;;3.20;;
21354;SDS011;10835;50.148;19.760;2023-05-09T06:31:53;8.70;;;3.47;;
21354;SDS011;10835;50.148;19.760;2023-05-09T06:34:25;6.95;;;3.67;;
21354;SDS011;10835;50.148;19.760;2023-05-09T06:36:53;5.03;;;3.30;;
21354;SDS011;10835;50.148;19.760;2023-05-09T06:39:22;4.85;;;2.97;;
21354;SDS011;10835;50.148;19.760;2023-05-09T06:41:50;5.57;;;3.22;;
21354;SDS011;10835;50.148;19.760;2023-05-09T06:44:28;4.57;;;3.50;;
21354;SDS011;10835;50.148;19.760;2023-05-09T06:46:58;5.88;;;3.60;;
21354;SDS011;10835;50.148;19.760;2023-05-09T06:49:27;6.45;;;3.55;;
21354;SDS011;10835;50.148;19.760;2023-05-09T06:51:55;7.97;;;4.45;;
21354;SDS011;10835;50.148;19.760;2023-05-09T06:54:24;5.70;;;3.70;;
21354;SDS011;10835;50.148;19.760;2023-05-09T06:56:53;4.18;;;2.75;;
21354;SDS011;10835;50.148;19.760;2023-05-09T06:59:23;4.82;;;3.35;;
21354;SDS011;10835;50.148;19.760;2023-05-09T07:01:52;11.32;;;4.18;;
21354;SDS011;10835;50.148;19.760;2023-05-09T07:04:23;5.88;;;3.72;;
21354;SDS011;10835;50.148;19.760;2023-05-09T07:06:51;5.43;;;3.60;;
21354;SDS011;10835;50.148;19.760;2023-05-09T07:09:21;6.15;;;3.58;;
21354;SDS011;10835;50.148;19.760;2023-05-09T07:11:54;4.20;;;3.03;;
21354;SDS011;10835;50.148;19.760;2023-05-09T07:14:23;5.57;;;3.53;;
21354;SDS011;10835;50.148;19.760;2023-05-09T07:16:51;5.07;;;3.95;;
21354;SDS011;10835;50.148;19.760;2023-05-09T07:19:27;4.75;;;3.25;;
21354;SDS011;10835;50.148;19.760;2023-05-09T07:21:55;7.85;;;3.90;;
21354;SDS011;10835;50.148;19.760;2023-05-09T07:24:24;5.22;;;4.03;;
21354;SDS011;10835;50.148;19.760;2023-05-09T07:26:54;5.90;;;3.85;;
21354;SDS011;10835;50.148;19.760;2023-05-09T07:29:22;6.32;;;4.10;;
21354;SDS011;10835;50.148;19.760;2023-05-09T07:31:50;5.20;;;3.22;;
21354;SDS011;10835;50.148;19.760;2023-05-09T07:34:18;6.78;;;3.90;;
21354;SDS011;10835;50.148;19.760;2023-05-09T07:36:46;6.78;;;3.90;;
21354;SDS011;10835;50.148;19.760;2023-05-09T07:39:15;5.53;;;3.28;;
21354;SDS011;10835;50.148;19.760;2023-05-09T07:41:43;7.15;;;3.75;;
21354;SDS011;10835;50.148;19.760;2023-05-09T07:44:15;5.20;;;3.30;;
21354;SDS011;10835;50.148;19.760;2023-05-09T07:46:43;5.00;;;3.35;;
21354;SDS011;10835;50.148;19.760;2023-05-09T07:49:12;5.68;;;3.85;;
21354;SDS011;10835;50.148;19.760;2023-05-09T07:51:40;5.50;;;3.22;;
21354;SDS011;10835;50.148;19.760;2023-05-09T07:54:08;7.72;;;4.00;;
21354;SDS011;10835;50.148;19.760;2023-05-09T07:56:36;6.60;;;3.72;;
21354;SDS011;10835;50.148;19.760;2023-05-09T07:59:04;7.28;;;4.13;;
21354;SDS011;10835;50.148;19.760;2023-05-09T08:01:34;4.65;;;3.47;;
21354;SDS011;10835;50.148;19.760;2023-05-09T08:04:02;6.82;;;4.10;;
21354;SDS011;10835;50.148;19.760;2023-05-09T08:06:32;5.65;;;3.83;;
21354;SDS011;10835;50.148;19.760;2023-05-09T08:09:01;6.93;;;4.13;;
21354;SDS011;10835;50.148;19.760;2023-05-09T08:11:31;6.35;;;3.78;;
21354;SDS011;10835;50.148;19.760;2023-05-09T08:14:02;5.22;;;3.88;;
21354;SDS011;10835;50.148;19.760;2023-05-09T08:16:31;7.35;;;4.45;;
21354;SDS011;10835;50.148;19.760;2023-05-09T08:19:00;5.38;;;3.40;;
21354;SDS011;10835;50.148;19.760;2023-05-09T08:21:29;5.07;;;3.47;;
21354;SDS011;10835;50.148;19.760;2023-05-09T08:23:57;5.40;;;4.28;;
21354;SDS011;10835;50.148;19.760;2023-05-09T08:26:27;4.28;;;3.42;;
21354;SDS011;10835;50.148;19.760;2023-05-09T08:28:55;8.23;;;3.72;;
21354;SDS011;10835;50.148;19.760;2023-05-09T08:31:23;5.80;;;3.40;;
21354;SDS011;10835;50.148;19.760;2023-05-09T08:33:52;5.22;;;3.30;;
21354;SDS011;10835;50.148;19.760;2023-05-09T08:36:22;3.63;;;3.08;;
21354;SDS011;10835;50.148;19.760;2023-05-09T08:38:50;4.82;;;2.78;;
21354;SDS011;10835;50.148;19.760;2023-05-09T08:41:18;5.65;;;3.22;;
21354;SDS011;10835;50.148;19.760;2023-05-09T08:43:53;6.03;;;2.85;;
21354;SDS011;10835;50.148;19.760;2023-05-09T08:46:23;3.42;;;2.85;;
21354;SDS011;10835;50.148;19.760;2023-05-09T08:48:55;4.72;;;3.10;;
21354;SDS011;10835;50.148;19.760;2023-05-09T08:51:26;4.82;;;2.67;;
21354;SDS011;10835;50.148;19.760;2023-05-09T08:53:57;6.38;;;3.03;;
21354;SDS011;10835;50.148;19.760;2023-05-09T08:56:26;4.32;;;2.85;;
21354;SDS011;10835;50.148;19.760;2023-05-09T08:58:55;3.83;;;2.53;;
21354;SDS011;10835;50.148;19.760;2023-05-09T09:01:23;4.00;;;3.03;;
21354;SDS011;10835;50.148;19.760;2023-05-09T09:03:53;5.63;;;2.90;;
21354;SDS011;10835;50.148;19.760;2023-05-09T09:06:22;4.38;;;2.70;;
21354;SDS011;10835;50.148;19.760;2023-05-09T09:08:55;4.78;;;2.75;;
21354;SDS011;10835;50.148;19.760;2023-05-09T09:11:24;5.22;;;2.60;;
21354;SDS011;10835;50.148;19.760;2023-05-09T09:13:53;4.20;;;2.38;;
21354;SDS011;10835;50.148;19.760;2023-05-09T09:16:27;2.83;;;2.20;;
21354;SDS011;10835;50.148;19.760;2023-05-09T09:18:56;5.85;;;2.78;;
21354;SDS011;10835;50.148;19.760;2023-05-09T09:21:26;9.05;;;2.58;;
21354;SDS011;10835;50.148;19.760;2023-05-09T09:23:56;3.60;;;2.05;;
21354;SDS011;10835;50.148;19.760;2023-05-09T09:26:24;5.65;;;2.20;;
21354;SDS011;10835;50.148;19.760;2023-05-09T09:28:54;2.88;;;2.30;;
21354;SDS011;10835;50.148;19.760;2023-05-09T09:31:24;8.77;;;2.20;;
21354;SDS011;10835;50.148;19.760;2023-05-09T09:33:58;4.63;;;2.45;;
21354;SDS011;10835;50.148;19.760;2023-05-09T09:36:27;3.53;;;2.55;;
21354;SDS011;10835;50.148;19.760;2023-05-09T09:38:59;3.08;;;2.45;;
21354;SDS011;10835;50.148;19.760;2023-05-09T09:41:30;7.25;;;2.33;;
21354;SDS011;10835;50.148;19.760;2023-05-09T09:44:07;3.50;;;2.13;;
21354;SDS011;10835;50.148;19.760;2023-05-09T09:46:40;2.47;;;1.60;;
21354;SDS011;10835;50.148;19.760;2023-05-09T09:49:11;3.67;;;2.10;;
21354;SDS011;10835;50.148;19.760;2023-05-09T09:51:40;2.88;;;2.00;;
21354;SDS011;10835;50.148;19.760;2023-05-09T09:54:10;2.83;;;2.05;;
21354;SDS011;10835;50.148;19.760;2023-05-09T09:56:40;2.40;;;1.92;;
21354;SDS011;10835;50.148;19.760;2023-05-09T09:59:09;3.88;;;1.80;;
21354;SDS011;10835;50.148;19.760;2023-05-09T10:01:54;2.22;;;1.80;;
21354;SDS011;10835;50.148;19.760;2023-05-09T10:04:24;3.85;;;2.40;;
21354;SDS011;10835;50.148;19.760;2023-05-09T10:06:54;3.97;;;2.35;;
21354;SDS011;10835;50.148;19.760;2023-05-09T10:09:25;5.60;;;2.33;;
21354;SDS011;10835;50.148;19.760;2023-05-09T10:12:00;2.90;;;1.88;;
21354;SDS011;10835;50.148;19.760;2023-05-09T10:14:30;3.80;;;2.15;;
21354;SDS011;10835;50.148;19.760;2023-05-09T10:17:01;5.65;;;2.08;;
21354;SDS011;10835;50.148;19.760;2023-05-09T10:19:31;6.50;;;2.17;;
21354;SDS011;10835;50.148;19.760;2023-05-09T10:22:04;4.25;;;2.50;;
21354;SDS011;10835;50.148;19.760;2023-05-09T10:24:41;4.53;;;2.33;;
21354;SDS011;10835;50.148;19.760;2023-05-09T10:27:14;4.05;;;2.00;;
21354;SDS011;10835;50.148;19.760;2023-05-09T10:29:49;3.30;;;2.00;;
21354;SDS011;10835;50.148;19.760;2023-05-09T10:32:24;4.60;;;2.10;;
21354;SDS011;10835;50.148;19.760;2023-05-09T10:34:57;3.75;;;2.00;;
21354;SDS011;10835;50.148;19.760;2023-05-09T10:37:31;3.72;;;1.90;;
21354;SDS011;10835;50.148;19.760;2023-05-09T10:40:03;4.95;;;2.03;;
21354;SDS011;10835;50.148;19.760;2023-05-09T10:42:32;4.10;;;2.00;;
21354;SDS011;10835;50.148;19.760;2023-05-09T10:45:00;2.00;;;1.80;;
21354;SDS011;10835;50.148;19.760;2023-05-09T10:47:29;4.30;;;1.80;;
21354;SDS011;10835;50.148;19.760;2023-05-09T10:49:58;5.97;;;2.05;;
21354;SDS011;10835;50.148;19.760;2023-05-09T10:52:30;2.00;;;1.83;;
21354;SDS011;10835;50.148;19.760;2023-05-09T10:54:59;5.10;;;2.08;;
21354;SDS011;10835;50.148;19.760;2023-05-09T10:57:30;3.85;;;2.10;;
21354;SDS011;10835;50.148;19.760;2023-05-09T11:00:01;6.25;;;2.05;;
21354;SDS011;10835;50.148;19.760;2023-05-09T11:02:31;2.55;;;1.98;;
21354;SDS011;10835;50.148;19.760;2023-05-09T11:05:12;2.08;;;1.70;;
21354;SDS011;10835;50.148;19.760;2023-05-09T11:07:45;5.88;;;1.95;;
21354;SDS011;10835;50.148;19.760;2023-05-09T11:10:15;1.55;;;1.45;;
21354;SDS011;10835;50.148;19.760;2023-05-09T11:12:54;4.30;;;1.80;;
21354;SDS011;10835;50.148;19.760;2023-05-09T11:15:24;1.60;;;1.30;;
21354;SDS011;10835;50.148;19.760;2023-05-09T11:18:03;4.72;;;1.85;;
21354;SDS011;10835;50.148;19.760;2023-05-09T11:20:33;5.43;;;1.98;;
21354;SDS011;10835;50.148;19.760;2023-05-09T11:23:02;1.83;;;1.65;;
21354;SDS011;10835;50.148;19.760;2023-05-09T11:25:33;2.03;;;1.70;;
21354;SDS011;10835;50.148;19.760;2023-05-09T11:28:04;4.00;;;1.73;;
21354;SDS011;10835;50.148;19.760;2023-05-09T11:30:37;3.13;;;1.40;;
21354;SDS011;10835;50.148;19.760;2023-05-09T11:33:20;4.97;;;1.42;;
21354;SDS011;10835;50.148;19.760;2023-05-09T11:38:42;5.18;;;2.03;;
21354;SDS011;10835;50.148;19.760;2023-05-09T11:41:13;1.88;;;1.70;;
21354;SDS011;10835;50.148;19.760;2023-05-09T11:43:41;2.60;;;1.90;;
21354;SDS011;10835;50.148;19.760;2023-05-09T11:46:10;2.20;;;1.90;;
21354;SDS011;10835;50.148;19.760;2023-05-09T11:48:39;3.35;;;2.20;;
21354;SDS011;10835;50.148;19.760;2023-05-09T11:51:14;2.40;;;1.48;;
21354;SDS011;10835;50.148;19.760;2023-05-09T11:53:44;4.00;;;1.90;;
21354;SDS011;10835;50.148;19.760;2023-05-09T11:56:17;2.08;;;1.73;;
21354;SDS011;10835;50.148;19.760;2023-05-09T11:58:45;3.88;;;2.10;;
21354;SDS011;10835;50.148;19.760;2023-05-09T12:01:16;1.70;;;1.50;;
21354;SDS011;10835;50.148;19.760;2023-05-09T12:03:45;1.65;;;1.55;;
21354;SDS011;10835;50.148;19.760;2023-05-09T12:06:14;4.40;;;1.98;;
21354;SDS011;10835;50.148;19.760;2023-05-09T12:08:43;4.53;;;2.00;;
21354;SDS011;10835;50.148;19.760;2023-05-09T12:11:12;3.17;;;1.63;;
21354;SDS011;10835;50.148;19.760;2023-05-09T12:13:46;2.80;;;1.65;;
21354;SDS011;10835;50.148;19.760;2023-05-09T12:16:16;4.18;;;1.75;;
21354;SDS011;10835;50.148;19.760;2023-05-09T12:18:45;2.58;;;1.63;;
21354;SDS011;10835;50.148;19.760;2023-05-09T12:21:15;8.00;;;1.90;;
21354;SDS011;10835;50.148;19.760;2023-05-09T12:23:44;2.88;;;1.85;;
21354;SDS011;10835;50.148;19.760;2023-05-09T12:26:16;1.63;;;1.52;;
21354;SDS011;10835;50.148;19.760;2023-05-09T12:28:49;2.00;;;1.38;;
21354;SDS011;10835;50.148;19.760;2023-05-09T12:31:18;2.10;;;1.65;;
21354;SDS011;10835;50.148;19.760;2023-05-09T12:33:47;3.17;;;1.73;;
21354;SDS011;10835;50.148;19.760;2023-05-09T12:36:15;2.33;;;1.65;;
21354;SDS011;10835;50.148;19.760;2023-05-09T12:38:51;3.50;;;1.65;;
21354;SDS011;10835;50.148;19.760;2023-05-09T12:41:20;2.55;;;1.73;;
21354;SDS011;10835;50.148;19.760;2023-05-09T12:44:08;4.88;;;1.52;;
21354;SDS011;10835;50.148;19.760;2023-05-09T12:46:36;1.77;;;1.58;;
21354;SDS011;10835;50.148;19.760;2023-05-09T12:49:04;4.43;;;1.70;;
21354;SDS011;10835;50.148;19.760;2023-05-09T12:51:47;2.78;;;1.13;;
21354;SDS011;10835;50.148;19.760;2023-05-09T12:54:18;2.00;;;1.80;;
21354;SDS011;10835;50.148;19.760;2023-05-09T12:56:48;2.65;;;1.50;;
21354;SDS011;10835;50.148;19.760;2023-05-09T12:59:22;1.98;;;1.58;;
21354;SDS011;10835;50.148;19.760;2023-05-09T13:01:53;2.00;;;1.25;;
21354;SDS011;10835;50.148;19.760;2023-05-09T13:04:23;3.45;;;1.60;;
21354;SDS011;10835;50.148;19.760;2023-05-09T13:06:53;1.45;;;1.35;;
21354;SDS011;10835;50.148;19.760;2023-05-09T13:09:23;1.60;;;1.25;;
21354;SDS011;10835;50.148;19.760;2023-05-09T13:11:57;2.85;;;1.83;;
21354;SDS011;10835;50.148;19.760;2023-05-09T13:14:27;2.03;;;1.40;;
21354;SDS011;10835;50.148;19.760;2023-05-09T13:16:55;4.97;;;1.67;;
21354;SDS011;10835;50.148;19.760;2023-05-09T13:19:23;2.28;;;1.40;;
21354;SDS011;10835;50.148;19.760;2023-05-09T13:21:53;3.05;;;1.63;;
21354;SDS011;10835;50.148;19.760;2023-05-09T13:24:24;4.78;;;1.70;;
21354;SDS011;10835;50.148;19.760;2023-05-09T13:26:52;2.33;;;1.80;;
21354;SDS011;10835;50.148;19.760;2023-05-09T13:29:21;2.03;;;1.63;;
21354;SDS011;10835;50.148;19.760;2023-05-09T13:31:50;2.80;;;1.33;;
21354;SDS011;10835;50.148;19.760;2023-05-09T13:34:19;1.35;;;1.25;;
21354;SDS011;10835;50.148;19.760;2023-05-09T13:36:50;6.57;;;1.92;;
21354;SDS011;10835;50.148;19.760;2023-05-09T13:39:18;2.78;;;1.42;;
21354;SDS011;10835;50.148;19.760;2023-05-09T13:41:49;2.17;;;1.67;;
21354;SDS011;10835;50.148;19.760;2023-05-09T13:44:18;2.20;;;1.65;;
21354;SDS011;10835;50.148;19.760;2023-05-09T13:46:46;3.15;;;1.52;;
21354;SDS011;10835;50.148;19.760;2023-05-09T13:49:16;3.25;;;1.90;;
21354;SDS011;10835;50.148;19.760;2023-05-09T13:51:47;2.58;;;1.70;;
21354;SDS011;10835;50.148;19.760;2023-05-09T13:54:16;4.45;;;2.40;;
21354;SDS011;10835;50.148;19.760;2023-05-09T13:56:45;2.35;;;1.42;;
21354;SDS011;10835;50.148;19.760;2023-05-09T13:59:13;2.35;;;1.63;;
21354;SDS011;10835;50.148;19.760;2023-05-09T14:01:42;1.63;;;1.52;;
21354;SDS011;10835;50.148;19.760;2023-05-09T14:04:10;2.40;;;1.52;;
21354;SDS011;10835;50.148;19.760;2023-05-09T14:06:40;2.40;;;1.75;;
21354;SDS011;10835;50.148;19.760;2023-05-09T14:09:13;2.42;;;1.88;;
21354;SDS011;10835;50.148;19.760;2023-05-09T14:11:42;2.65;;;1.73;;
21354;SDS011;10835;50.148;19.760;2023-05-09T14:14:10;1.73;;;1.42;;
21354;SDS011;10835;50.148;19.760;2023-05-09T14:16:38;2.22;;;1.70;;
21354;SDS011;10835;50.148;19.760;2023-05-09T14:19:07;2.90;;;1.23;;
21354;SDS011;10835;50.148;19.760;2023-05-09T14:21:35;2.83;;;1.10;;
21354;SDS011;10835;50.148;19.760;2023-05-09T14:24:05;1.85;;;1.25;;
21354;SDS011;10835;50.148;19.760;2023-05-09T14:26:34;2.47;;;1.40;;
21354;SDS011;10835;50.148;19.760;2023-05-09T14:29:05;2.20;;;1.23;;
21354;SDS011;10835;50.148;19.760;2023-05-09T14:31:33;2.25;;;1.98;;
21354;SDS011;10835;50.148;19.760;2023-05-09T14:34:02;3.53;;;1.75;;
21354;SDS011;10835;50.148;19.760;2023-05-09T14:36:31;2.92;;;1.58;;
21354;SDS011;10835;50.148;19.760;2023-05-09T14:38:59;3.03;;;2.28;;
21354;SDS011;10835;50.148;19.760;2023-05-09T14:41:30;3.67;;;1.45;;
21354;SDS011;10835;50.148;19.760;2023-05-09T14:43:58;4.55;;;1.60;;
21354;SDS011;10835;50.148;19.760;2023-05-09T14:46:27;7.22;;;1.63;;
21354;SDS011;10835;50.148;19.760;2023-05-09T14:48:55;2.55;;;1.58;;
21354;SDS011;10835;50.148;19.760;2023-05-09T14:51:29;4.45;;;1.55;;
21354;SDS011;10835;50.148;19.760;2023-05-09T14:53:58;7.65;;;1.50;;